Observations for CERVIA IT-AFB, Italy (LIPC)

LIPC 180655Z 26008KT CAVOK 23/19 Q1015  
LIPC 180655Z 26008KT CAVOK 23/19 Q1015 RMK SKC VIS MIN 9999 WIND THR11 /////KT WIND THR29 26008KT BLU
LIPC 180555Z 25005KT CAVOK 20/18 Q1015  
LIPC 180555Z 25005KT CAVOK 20/18 Q1015 RMK SKC VIS MIN 9999 WIND THR11 /////KT WIND THR29 27005KT BLU
LIPC 180455Z 26003KT CAVOK 18/17 Q1015  
LIPC 180455Z 26003KT CAVOK 18/17 Q1015 RMK SKC VIS MIN 9999 WIND THR11 /////KT WIND THR29 27004KT BLU
LIPC 180355Z 29004KT CAVOK 17/17 Q1014  
LIPC 180355Z 29004KT CAVOK 17/17 Q1014 RMK SKC VIS MIN 9999 WIND THR11 /////KT WIND THR29 30004KT BLU
LIPC 180255Z 28005KT CAVOK 17/17 Q1015  
LIPC 180255Z 28005KT CAVOK 17/17 Q1015 RMK SKC VIS MIN 9999 WIND THR11 /////KT WIND THR29 30004KT BLU
LIPC 180155Z 27003KT CAVOK 18/17 Q1015  
LIPC 180155Z 27003KT CAVOK 18/17 Q1015 RMK SKC VIS MIN 9999 WIND THR11 /////KT WIND THR29 27004KT BLU
LIPC 180055Z 24006KT CAVOK 18/18 Q1015  
LIPC 180055Z 24006KT CAVOK 18/18 Q1015 RMK SKC VIS MIN 9999 WIND THR11 /////KT WIND THR29 27004KT BLU
LIPC 172355Z 24006KT CAVOK 18/18 Q1015  
LIPC 172355Z 24006KT CAVOK 18/18 Q1015 RMK SKC VIS MIN 9999 WIND THR11 /////KT WIND THR29 26004KT BLU
LIPC 172255Z 25006KT CAVOK 18/18 Q1015 RMK SKC VIS MIN 9999 WIND THR11 /////KT WIND THR29 26005KT BLU   
LIPC 172155Z 22002KT CAVOK 19/18 Q1015 RMK SKC VIS MIN 9999 WIND THR11 /////KT WIND THR29 22002KT BLU   
LIPC 172055Z 21003KT CAVOK 20/19 Q1015 RMK SKC VIS MIN 9999 WIND THR11 /////KT WIND THR29 22002KT BLU   
LIPC 171955Z 15003KT CAVOK 22/19 Q1014 RMK FEW FEW200 VIS MIN 9999 WIND THR11 /////KT WIND THR29 16003KT BLU
LIPC 171855Z 15005KT CAVOK 23/19 Q1014  
LIPC 171855Z 15005KT CAVOK 23/19 Q1014 RMK FEW FEW200 VIS MIN 9999 WIND THR11 /////KT WIND THR29 16004KT BLU
LIPC 171755Z 11005KT CAVOK 25/17 Q1014 RMK FEW FEW200 VIS MIN 9999 WIND THR11/////KT WIND THR29 12005KT BLU 
LIPC 171655Z 10007KT CAVOK 27/18 Q1014  
LIPC 171655Z 10007KT CAVOK 27/18 Q1014 RMK FEW FEW200 VIS MIN 9999 WIND THR11/////KT WIND THR29 12006KT BLU
LIPC 171555Z 10008KT CAVOK 27/18 Q1014 RMK SCT SCT200 VIS MIN 9999 WIND THR11/////KT WIND THR29 10008KT BLU 
LIPC 171455Z 08010KT CAVOK 27/19 Q1014  
LIPC 171455Z 08010KT CAVOK 27/19 Q1014 RMK FEW FEW200 VIS MIN 9999 WIND THR11/////KT WIND THR29 10011KT BLU
LIPC 171355Z 07009KT CAVOK 27/19 Q1015 RMK SKC VIS MIN 9999 WIND THR11/////KT WIND THR29 07010KT BLU
LIPC 171255Z 06009KT 030V090 CAVOK 28/19 Q1015  
LIPC 171255Z 06009KT 030V090 CAVOK 28/19 Q1015 RMK SKC VIS MIN 9999 WIND THR11/////KT WIND THR29 05009KT BLU
LIPC 171155Z 06009KT CAVOK 27/21 Q1015  
LIPC 171155Z 06009KT CAVOK 27/21 Q1015 RMK SKC VIS MIN 9999 WIND THR11/////KT WIND THR29 04009KT BLU
LIPC 171055Z 05007KT 010V080 CAVOK 27/20 Q1015  
LIPC 171055Z 05007KT 010V080 CAVOK 27/20 Q1015 RMK SKC VIS MIN 9999 WIND THR11/////KT WIND THR29 04008KT BLU
LIPC 170955Z 02007KT 320V070 CAVOK 27/20 Q1015  
LIPC 170955Z 02007KT 320V070 CAVOK 27/20 Q1015 RMK SKC VIS MIN 9999 WIND THR11/////KT WIND THR29 02009KT BLU
LIPC 170855Z 03006KT 330V070 CAVOK 26/20 Q1015  
LIPC 170855Z 03006KT 330V070 CAVOK 26/20 Q1015 RMK FEW FEW100 VIS MIN 9999 WINDTHR11/////KT WIND THR29 03007KT BLU
LIPC 170755Z 04005KT 330V090 9999 FEW025 25/20 Q1015 RMK FEW VIS MIN 9999 WIND THR11/////KT WIND THR29 06005KT BLU  
LIPC 170655Z 36003KT 310V030 9999 FEW050 24/19 Q1015 RMK SCT VIS MIN 9999 WIND THR11/////KT WIND THR29 34004KT BLU